createdAt,value
2022-11-05T00:08:13.264Z,98.8
2022-11-05T00:28:13.261Z,98.9
2022-11-05T00:48:13.221Z,97.9
2022-11-05T01:08:13.206Z,97.5
2022-11-05T01:48:13.150Z,96.2
2022-11-05T02:08:13.145Z,97.5
2022-11-05T02:28:13.175Z,96.2
2022-11-05T02:48:13.106Z,98.2
2022-11-05T03:08:13.091Z,97.9
2022-11-05T03:28:13.061Z,98.7
2022-11-05T03:48:13.048Z,98.6
2022-11-05T04:08:13.043Z,98.6
2022-11-05T04:28:13.028Z,99.0
2022-11-05T04:48:12.998Z,99.0
2022-11-05T05:08:12.981Z,99.5
2022-11-05T05:28:12.966Z,99.5
2022-11-05T05:48:12.945Z,99.3
2022-11-05T06:08:12.919Z,99.9
2022-11-05T06:28:12.926Z,100.0
2022-11-05T06:48:12.898Z,100.0
2022-11-05T07:08:12.877Z,100.0
2022-11-05T07:28:12.873Z,100.0
2022-11-05T07:48:12.861Z,100.0
2022-11-05T08:08:12.810Z,100.0
2022-11-05T08:28:12.798Z,100.0
2022-11-05T08:48:12.856Z,100.0
2022-11-05T09:08:12.753Z,99.9
2022-11-05T09:28:12.732Z,99.5
2022-11-05T09:48:12.724Z,99.8
2022-11-05T10:08:12.697Z,99.8
2022-11-05T10:28:12.669Z,100.0
2022-11-05T10:48:12.649Z,99.7
2022-11-05T11:08:12.651Z,100.0
2022-11-05T11:28:12.643Z,100.0
2022-11-05T11:48:12.633Z,99.6
2022-11-05T12:08:12.577Z,99.0
2022-11-05T12:28:12.539Z,98.5
2022-11-05T12:48:12.534Z,99.4
2022-11-05T13:08:12.505Z,97.8
2022-11-05T13:28:12.499Z,97.9
2022-11-05T13:48:12.454Z,98.4
2022-11-05T14:08:12.447Z,97.6
2022-11-05T14:28:12.416Z,97.1
2022-11-05T14:48:12.397Z,97.6
2022-11-05T15:08:12.383Z,97.3
2022-11-05T15:28:12.362Z,96.9
2022-11-05T15:48:12.339Z,97.7
2022-11-05T16:08:12.306Z,97.3
2022-11-05T16:28:12.291Z,96.8
2022-11-05T16:48:12.262Z,97.2
2022-11-05T17:08:12.297Z,96.8
2022-11-05T17:28:12.239Z,97.1
2022-11-05T17:48:12.214Z,96.7
2022-11-05T18:08:12.188Z,97.7
2022-11-05T18:28:12.184Z,97.5
2022-11-05T18:48:12.152Z,96.9
2022-11-05T19:08:12.205Z,97.5
2022-11-05T19:28:12.131Z,96.2
2022-11-05T19:48:12.193Z,95.7
2022-11-05T20:08:12.060Z,95.0
2022-11-05T20:28:12.138Z,95.7
2022-11-05T20:48:12.041Z,96.2
2022-11-05T21:08:12.067Z,96.9
2022-11-05T21:28:12.031Z,96.6
2022-11-05T21:48:11.994Z,96.7
2022-11-05T22:08:12.014Z,95.5
2022-11-05T22:28:12.039Z,95.4
2022-11-05T22:48:12.042Z,96.5
2022-11-05T23:08:11.918Z,97.2
2022-11-05T23:28:11.931Z,98.1
2022-11-05T23:48:11.875Z,96.9
